Time,TemperatureF,DewpointF,PressureIn,WindDirection,WindDirectionDegrees,WindSpeedMPH,WindSpeedGustMPH,Humidity,HourlyPrecipIn,Conditions,Clouds,dailyrainin,SoftwareType,DateUTC
2013-05-06 00:01:00,54.7,46.9,29.85,NNE,22,0.0,0.0,75,0.00,,,0.00,WUHU21623XXSP,2013-05-06 04:01:00,
2013-05-06 00:06:00,54.9,47.0,29.85,NNE,22,0.0,0.0,75,0.00,,,0.00,WUHU21623XXSP,2013-05-06 04:06:00,
2013-05-06 00:11:00,54.9,47.0,29.85,NNE,22,0.0,0.0,75,0.00,,,0.00,WUHU21623XXSP,2013-05-06 04:11:00,
2013-05-06 00:16:00,54.7,46.9,29.85,NNE,22,0.0,0.0,75,0.00,,,0.00,WUHU21623XXSP,2013-05-06 04:16:00,
2013-05-06 00:21:00,54.7,46.5,29.85,NNE,22,0.0,0.0,74,0.00,,,0.00,WUHU21623XXSP,2013-05-06 04:21:00,
2013-05-06 00:26:00,54.7,46.5,29.85,NNE,22,0.0,0.0,74,0.00,,,0.00,WUHU21623XXSP,2013-05-06 04:26:00,
2013-05-06 00:31:00,54.7,46.9,29.85,NNE,22,0.0,0.0,75,0.00,,,0.00,WUHU21623XXSP,2013-05-06 04:31:00,
2013-05-06 00:36:00,54.7,46.5,29.85,NNE,22,0.0,0.0,74,0.00,,,0.00,WUHU21623XXSP,2013-05-06 04:36:00,
2013-05-06 00:41:00,54.7,46.5,29.85,NNE,22,0.0,0.0,74,0.00,,,0.00,WUHU21623XXSP,2013-05-06 04:41:00,
2013-05-06 00:46:00,54.7,47.2,29.85,NNE,22,0.0,0.0,76,0.00,,,0.00,WUHU21623XXSP,2013-05-06 04:46:00,
2013-05-06 00:51:00,54.7,47.2,29.85,NNE,22,0.0,0.0,76,0.00,,,0.00,WUHU21623XXSP,2013-05-06 04:51:00,
2013-05-06 00:56:00,54.5,47.1,29.85,NNE,22,0.0,0.0,76,0.00,,,0.00,WUHU21623XXSP,2013-05-06 04:56:00,
2013-05-06 01:01:00,54.5,47.1,29.85,NNE,22,0.0,0.0,76,0.00,,,0.00,WUHU21623XXSP,2013-05-06 05:01:00,
2013-05-06 01:06:00,54.3,47.2,29.85,NNE,22,0.0,0.0,77,0.00,,,0.00,WUHU21623XXSP,2013-05-06 05:06:00,
2013-05-06 01:11:00,54.3,47.2,29.85,NNE,22,0.0,0.0,77,0.00,,,0.00,WUHU21623XXSP,2013-05-06 05:11:00,
2013-05-06 01:16:00,54.3,47.2,29.85,NNE,22,0.0,0.0,77,0.00,,,0.00,WUHU21623XXSP,2013-05-06 05:16:00,
2013-05-06 01:21:00,54.1,47.1,29.85,NNE,22,0.0,0.0,77,0.00,,,0.00,WUHU21623XXSP,2013-05-06 05:21:00,
2013-05-06 01:26:00,54.1,47.1,29.85,NNE,22,0.0,0.0,77,0.00,,,0.00,WUHU21623XXSP,2013-05-06 05:26:00,
2013-05-06 01:31:00,54.0,47.3,29.85,NNE,22,0.0,0.0,78,0.00,,,0.00,WUHU21623XXSP,2013-05-06 05:31:00,
2013-05-06 01:36:00,54.0,47.3,29.85,NNE,22,0.0,0.0,78,0.00,,,0.00,WUHU21623XXSP,2013-05-06 05:36:00,
2013-05-06 01:41:00,53.8,47.1,29.85,NNE,22,0.0,0.0,78,0.00,,,0.00,WUHU21623XXSP,2013-05-06 05:41:00,
2013-05-06 01:46:00,53.8,47.1,29.85,NNE,22,0.0,0.0,78,0.00,,,0.00,WUHU21623XXSP,2013-05-06 05:46:00,
2013-05-06 01:51:00,53.8,47.1,29.85,NNE,22,0.0,0.0,78,0.00,,,0.00,WUHU21623XXSP,2013-05-06 05:51:00,
2013-05-06 01:56:00,53.6,47.3,29.85,NNE,22,0.0,0.0,79,0.00,,,0.00,WUHU21623XXSP,2013-05-06 05:56:00,
2013-05-06 02:01:00,53.4,47.1,29.84,NNE,22,0.0,0.0,79,0.00,,,0.00,WUHU21623XXSP,2013-05-06 06:01:00,
2013-05-06 02:06:00,53.6,47.3,29.85,NNE,22,0.0,0.0,79,0.00,,,0.00,WUHU21623XXSP,2013-05-06 06:06:00,
2013-05-06 02:11:00,53.6,47.3,29.85,NNE,22,0.0,0.0,79,0.00,,,0.00,WUHU21623XXSP,2013-05-06 06:11:00,
2013-05-06 02:16:00,53.6,47.3,29.85,NNE,22,0.0,0.0,79,0.00,,,0.00,WUHU21623XXSP,2013-05-06 06:16:00,
2013-05-06 02:21:00,53.6,47.3,29.84,NNE,22,0.0,0.0,79,0.00,,,0.00,WUHU21623XXSP,2013-05-06 06:21:00,
2013-05-06 02:26:00,53.4,47.1,29.84,NNE,22,0.0,0.0,79,0.00,,,0.00,WUHU21623XXSP,2013-05-06 06:26:00,
2013-05-06 02:31:00,53.6,47.3,29.84,NNE,22,0.0,0.0,79,0.00,,,0.00,WUHU21623XXSP,2013-05-06 06:31:00,
2013-05-06 02:36:00,53.4,47.1,29.84,NNE,22,0.0,0.0,79,0.00,,,0.00,WUHU21623XXSP,2013-05-06 06:36:00,
2013-05-06 02:41:00,53.4,46.8,29.84,NNE,22,0.0,0.0,78,0.00,,,0.00,WUHU21623XXSP,2013-05-06 06:41:00,
2013-05-06 02:46:00,53.4,46.8,29.84,NNE,22,0.0,0.0,78,0.00,,,0.00,WUHU21623XXSP,2013-05-06 06:46:00,
2013-05-06 02:51:00,53.4,46.8,29.84,NNE,22,0.0,0.0,78,0.00,,,0.00,WUHU21623XXSP,2013-05-06 06:51:00,
2013-05-06 02:56:00,53.4,46.8,29.84,NNE,22,0.0,0.0,78,0.00,,,0.00,WUHU21623XXSP,2013-05-06 06:56:00,
2013-05-06 03:01:00,53.4,46.8,29.84,NNE,22,0.0,0.0,78,0.00,,,0.00,WUHU21623XXSP,2013-05-06 07:01:00,
2013-05-06 03:06:00,53.4,46.8,29.83,NNE,22,0.0,0.0,78,0.00,,,0.00,WUHU21623XXSP,2013-05-06 07:06:00,
2013-05-06 03:11:00,53.4,46.8,29.83,NNE,22,0.0,0.0,78,0.00,,,0.00,WUHU21623XXSP,2013-05-06 07:11:00,
2013-05-06 03:16:00,53.4,46.8,29.83,NNE,22,0.0,0.0,78,0.00,,,0.00,WUHU21623XXSP,2013-05-06 07:16:00,
2013-05-06 03:21:00,53.2,46.6,29.83,NNE,22,0.0,0.0,78,0.00,,,0.00,WUHU21623XXSP,2013-05-06 07:21:00,
2013-05-06 03:26:00,53.2,46.6,29.83,NNE,22,0.0,0.0,78,0.00,,,0.00,WUHU21623XXSP,2013-05-06 07:26:00,
2013-05-06 03:31:00,53.2,46.9,29.83,NNE,22,0.0,0.0,79,0.00,,,0.00,WUHU21623XXSP,2013-05-06 07:31:00,
2013-05-06 03:36:00,52.9,46.6,29.83,NNE,22,0.0,0.0,79,0.00,,,0.00,WUHU21623XXSP,2013-05-06 07:36:00,
2013-05-06 03:41:00,52.9,46.2,29.83,NNE,22,0.0,0.0,78,0.00,,,0.00,WUHU21623XXSP,2013-05-06 07:41:00,
2013-05-06 03:46:00,52.5,45.9,29.83,NNE,22,0.0,0.0,78,0.00,,,0.00,WUHU21623XXSP,2013-05-06 07:46:00,
2013-05-06 03:51:00,52.3,45.4,29.82,NNE,22,0.0,0.0,77,0.00,,,0.00,WUHU21623XXSP,2013-05-06 07:51:00,
2013-05-06 03:56:00,52.2,45.2,29.82,NNE,22,0.0,0.0,77,0.00,,,0.00,WUHU21623XXSP,2013-05-06 07:56:00,
2013-05-06 04:01:00,52.0,45.0,29.82,NNE,22,0.0,0.0,77,0.00,,,0.00,WUHU21623XXSP,2013-05-06 08:01:00,
2013-05-06 04:06:00,51.8,44.8,29.82,NNE,22,0.0,0.0,77,0.00,,,0.00,WUHU21623XXSP,2013-05-06 08:06:00,
2013-05-06 04:11:00,51.6,44.7,29.82,NNE,22,0.0,0.0,77,0.00,,,0.00,WUHU21623XXSP,2013-05-06 08:11:00,
2013-05-06 04:16:00,51.6,44.7,29.82,NNE,22,0.0,0.0,77,0.00,,,0.00,WUHU21623XXSP,2013-05-06 08:16:00,
2013-05-06 04:21:00,51.4,44.5,29.82,NNE,22,0.0,0.0,77,0.00,,,0.00,WUHU21623XXSP,2013-05-06 08:21:00,
2013-05-06 04:26:00,51.3,44.3,29.81,NNE,22,0.0,0.0,77,0.00,,,0.00,WUHU21623XXSP,2013-05-06 08:26:00,
2013-05-06 04:31:00,51.1,44.1,29.81,NNE,22,0.0,0.0,77,0.00,,,0.00,WUHU21623XXSP,2013-05-06 08:31:00,
2013-05-06 04:36:00,50.9,43.9,29.81,NNE,22,0.0,0.0,77,0.00,,,0.00,WUHU21623XXSP,2013-05-06 08:36:00,
2013-05-06 04:41:00,50.7,43.8,29.82,NNE,22,0.0,0.0,77,0.00,,,0.00,WUHU21623XXSP,2013-05-06 08:41:00,
2013-05-06 04:46:00,50.7,43.8,29.81,NNE,22,0.0,0.0,77,0.00,,,0.00,WUHU21623XXSP,2013-05-06 08:46:00,
2013-05-06 04:51:00,50.5,43.6,29.82,NNE,22,0.0,0.0,77,0.00,,,0.00,WUHU21623XXSP,2013-05-06 08:51:00,
2013-05-06 04:56:00,50.4,43.4,29.82,NNE,22,0.0,0.0,77,0.00,,,0.00,WUHU21623XXSP,2013-05-06 08:56:00,
2013-05-06 05:01:00,50.2,43.2,29.81,NNE,22,0.0,0.0,77,0.00,,,0.00,WUHU21623XXSP,2013-05-06 09:01:00,
2013-05-06 05:06:00,50.0,42.7,29.82,NNE,22,0.0,0.0,76,0.00,,,0.00,WUHU21623XXSP,2013-05-06 09:06:00,
2013-05-06 05:11:00,49.8,42.5,29.81,NNE,22,0.0,0.0,76,0.00,,,0.00,WUHU21623XXSP,2013-05-06 09:11:00,
2013-05-06 05:16:00,49.8,42.5,29.81,NNE,22,0.0,0.0,76,0.00,,,0.00,WUHU21623XXSP,2013-05-06 09:16:00,
2013-05-06 05:21:00,49.6,42.3,29.81,NNE,22,0.0,0.0,76,0.00,,,0.00,WUHU21623XXSP,2013-05-06 09:21:00,
2013-05-06 05:26:00,49.6,42.7,29.81,NNE,22,0.0,0.0,77,0.00,,,0.00,WUHU21623XXSP,2013-05-06 09:26:00,
2013-05-06 05:31:00,49.6,42.3,29.81,NNE,22,0.0,0.0,76,0.00,,,0.00,WUHU21623XXSP,2013-05-06 09:31:00,
2013-05-06 05:36:00,49.6,42.7,29.82,NNE,22,0.0,0.0,77,0.00,,,0.00,WUHU21623XXSP,2013-05-06 09:36:00,
2013-05-06 05:41:00,49.6,42.7,29.82,NNE,22,0.0,0.0,77,0.00,,,0.00,WUHU21623XXSP,2013-05-06 09:41:00,
2013-05-06 05:46:00,49.6,42.7,29.82,NNE,22,0.0,0.0,77,0.00,,,0.00,WUHU21623XXSP,2013-05-06 09:46:00,
2013-05-06 05:51:00,49.3,42.3,29.82,NNE,22,0.0,0.0,77,0.00,,,0.00,WUHU21623XXSP,2013-05-06 09:51:00,
2013-05-06 05:56:00,49.3,42.3,29.82,NNE,22,0.0,0.0,77,0.00,,,0.00,WUHU21623XXSP,2013-05-06 09:56:00,
2013-05-06 06:01:00,49.3,42.3,29.82,NNE,22,0.0,0.0,77,0.00,,,0.00,WUHU21623XXSP,2013-05-06 10:01:00,
2013-05-06 06:06:00,49.1,42.1,29.82,NNE,22,0.0,0.0,77,0.00,,,0.00,WUHU21623XXSP,2013-05-06 10:06:00,
2013-05-06 06:11:00,49.1,42.1,29.82,NE,45,0.0,0.0,77,0.00,,,0.00,WUHU21623XXSP,2013-05-06 10:11:00,
2013-05-06 06:16:00,49.1,41.8,29.82,NE,45,0.0,0.0,76,0.00,,,0.00,WUHU21623XXSP,2013-05-06 10:16:00,
2013-05-06 06:21:00,49.1,41.8,29.82,NE,45,0.0,0.0,76,0.00,,,0.00,WUHU21623XXSP,2013-05-06 10:21:00,
2013-05-06 06:26:00,49.3,42.0,29.82,NE,45,0.0,0.0,76,0.00,,,0.00,WUHU21623XXSP,2013-05-06 10:26:00,
2013-05-06 06:31:00,49.3,41.6,29.82,NNE,22,0.0,0.0,75,0.00,,,0.00,WUHU21623XXSP,2013-05-06 10:31:00,
2013-05-06 06:36:00,49.6,41.6,29.83,NE,45,0.0,0.0,74,0.00,,,0.00,WUHU21623XXSP,2013-05-06 10:36:00,
2013-05-06 06:41:00,49.8,41.5,29.83,NE,45,0.0,0.0,73,0.00,,,0.00,WUHU21623XXSP,2013-05-06 10:41:00,
2013-05-06 06:46:00,50.0,41.7,29.83,NE,45,0.0,0.0,73,0.00,,,0.00,WUHU21623XXSP,2013-05-06 10:46:00,
2013-05-06 06:51:00,50.2,41.5,29.83,NE,45,0.0,0.0,72,0.00,,,0.00,WUHU21623XXSP,2013-05-06 10:51:00,
2013-05-06 06:56:00,50.5,41.9,29.83,NNE,22,0.0,0.0,72,0.00,,,0.00,WUHU21623XXSP,2013-05-06 10:56:00,
2013-05-06 07:01:00,50.5,41.5,29.84,NE,45,0.0,0.0,71,0.00,,,0.00,WUHU21623XXSP,2013-05-06 11:01:00,
2013-05-06 07:06:00,50.7,41.7,29.84,NE,45,0.0,0.0,71,0.00,,,0.00,WUHU21623XXSP,2013-05-06 11:06:00,
2013-05-06 07:11:00,50.7,41.7,29.84,NE,45,0.0,0.0,71,0.00,,,0.00,WUHU21623XXSP,2013-05-06 11:11:00,
2013-05-06 07:16:00,50.9,41.5,29.84,NE,45,0.0,0.0,70,0.00,,,0.00,WUHU21623XXSP,2013-05-06 11:16:00,
2013-05-06 07:21:00,51.1,41.7,29.84,ENE,67,0.0,0.0,70,0.00,,,0.00,WUHU21623XXSP,2013-05-06 11:21:00,
2013-05-06 07:26:00,51.1,41.7,29.84,NE,45,0.0,0.0,70,0.00,,,0.00,WUHU21623XXSP,2013-05-06 11:26:00,
2013-05-06 07:31:00,51.3,41.9,29.84,ENE,67,0.0,0.0,70,0.00,,,0.00,WUHU21623XXSP,2013-05-06 11:31:00,
2013-05-06 07:36:00,51.4,42.1,29.85,NE,45,0.0,0.0,70,0.00,,,0.00,WUHU21623XXSP,2013-05-06 11:36:00,
2013-05-06 07:41:00,51.6,42.6,29.85,ENE,67,0.0,0.0,71,0.00,,,0.00,WUHU21623XXSP,2013-05-06 11:41:00,
2013-05-06 07:46:00,51.6,42.6,29.85,NE,45,0.0,0.0,71,0.00,,,0.00,WUHU21623XXSP,2013-05-06 11:46:00,
2013-05-06 07:51:00,51.8,43.1,29.85,NE,45,0.0,0.0,72,0.00,,,0.00,WUHU21623XXSP,2013-05-06 11:51:00,
2013-05-06 07:56:00,52.0,42.9,29.85,NE,45,0.0,0.0,71,0.00,,,0.00,WUHU21623XXSP,2013-05-06 11:56:00,
2013-05-06 08:01:00,52.2,43.1,29.85,NE,45,0.0,0.0,71,0.00,,,0.00,WUHU21623XXSP,2013-05-06 12:01:00,
2013-05-06 08:06:00,52.3,42.9,29.85,NE,45,0.0,0.0,70,0.00,,,0.00,WUHU21623XXSP,2013-05-06 12:06:00,
2013-05-06 08:11:00,52.5,43.1,29.85,NE,45,0.0,0.0,70,0.00,,,0.00,WUHU21623XXSP,2013-05-06 12:11:00,
2013-05-06 08:16:00,52.9,43.4,29.85,NE,45,0.0,0.0,70,0.00,,,0.00,WUHU21623XXSP,2013-05-06 12:16:00,
2013-05-06 08:21:00,53.1,43.6,29.86,NE,45,0.0,0.0,70,0.00,,,0.00,WUHU21623XXSP,2013-05-06 12:21:00,
2013-05-06 08:26:00,53.2,42.9,29.86,NE,45,0.0,0.0,68,0.00,,,0.00,WUHU21623XXSP,2013-05-06 12:26:00,
2013-05-06 08:31:00,53.4,43.1,29.86,NE,45,0.0,0.0,68,0.00,,,0.00,WUHU21623XXSP,2013-05-06 12:31:00,
2013-05-06 08:36:00,53.8,43.0,29.86,NNE,22,0.0,0.0,67,0.00,,,0.00,WUHU21623XXSP,2013-05-06 12:36:00,
2013-05-06 08:41:00,54.1,43.0,29.86,NE,39,1.4,2.5,66,0.00,,,0.00,WUHU21623XXSP,2013-05-06 12:41:00,
2013-05-06 08:46:00,54.3,43.2,29.86,ENE,67,0.0,2.5,66,0.00,,,0.00,WUHU21623XXSP,2013-05-06 12:46:00,
2013-05-06 08:51:00,54.9,44.1,29.86,NE,45,0.0,1.3,67,0.00,,,0.00,WUHU21623XXSP,2013-05-06 12:51:00,
2013-05-06 08:56:00,55.2,44.0,29.86,NE,45,0.0,1.1,66,0.00,,,0.00,WUHU21623XXSP,2013-05-06 12:56:00,
2013-05-06 09:01:00,55.8,44.1,29.86,NE,43,1.4,2.5,65,0.00,,,0.00,WUHU21623XXSP,2013-05-06 13:01:00,
2013-05-06 09:06:00,56.1,44.5,29.87,NE,45,0.0,2.5,65,0.00,,,0.00,WUHU21623XXSP,2013-05-06 13:06:00,
2013-05-06 09:11:00,56.5,44.4,29.87,NE,45,0.0,1.3,64,0.00,,,0.00,WUHU21623XXSP,2013-05-06 13:11:00,
2013-05-06 09:16:00,56.8,44.3,29.87,NNE,22,0.0,1.3,63,0.00,,,0.00,WUHU21623XXSP,2013-05-06 13:16:00,
2013-05-06 09:21:00,57.0,44.5,29.87,NNE,22,1.1,1.3,63,0.00,,,0.00,WUHU21623XXSP,2013-05-06 13:21:00,
2013-05-06 09:26:00,57.6,45.0,29.87,NNE,22,0.0,1.3,63,0.00,,,0.00,WUHU21623XXSP,2013-05-06 13:26:00,
2013-05-06 09:31:00,57.9,45.4,29.87,East,90,0.0,0.0,63,0.00,,,0.00,WUHU21623XXSP,2013-05-06 13:31:00,
2013-05-06 09:36:00,58.3,45.7,29.87,East,90,0.0,0.0,63,0.00,,,0.00,WUHU21623XXSP,2013-05-06 13:36:00,
2013-05-06 09:41:00,58.8,45.4,29.87,ENE,67,0.0,1.1,61,0.00,,,0.00,WUHU21623XXSP,2013-05-06 13:41:00,
2013-05-06 09:46:00,59.0,45.6,29.87,NE,45,0.0,1.1,61,0.00,,,0.00,WUHU21623XXSP,2013-05-06 13:46:00,
2013-05-06 09:51:00,59.5,46.1,29.87,ENE,67,0.0,0.7,61,0.00,,,0.00,WUHU21623XXSP,2013-05-06 13:51:00,
2013-05-06 09:56:00,60.1,46.2,29.87,NNE,22,1.6,1.6,60,0.00,,,0.00,WUHU21623XXSP,2013-05-06 13:56:00,
2013-05-06 10:01:00,60.4,46.1,29.87,NNE,26,1.5,2.2,59,0.00,,,0.00,WUHU21623XXSP,2013-05-06 14:01:00,
2013-05-06 10:06:00,60.8,46.0,29.87,NE,45,1.2,2.2,58,0.00,,,0.00,WUHU21623XXSP,2013-05-06 14:06:00,
2013-05-06 10:11:00,61.2,46.3,29.87,NNE,22,0.9,2.0,58,0.00,,,0.00,WUHU21623XXSP,2013-05-06 14:11:00,
2013-05-06 10:16:00,61.5,46.6,29.87,NE,45,1.1,2.0,58,0.00,,,0.00,WUHU21623XXSP,2013-05-06 14:16:00,
2013-05-06 10:21:00,61.9,46.0,29.87,NE,41,1.5,2.7,56,0.00,,,0.00,WUHU21623XXSP,2013-05-06 14:21:00,
2013-05-06 10:26:00,62.4,46.5,29.87,ENE,67,0.0,2.7,56,0.00,,,0.00,WUHU21623XXSP,2013-05-06 14:26:00,
2013-05-06 10:31:00,62.8,45.8,29.87,NE,45,2.0,2.9,54,0.00,,,0.00,WUHU21623XXSP,2013-05-06 14:31:00,
2013-05-06 10:36:00,63.1,46.6,29.86,ENE,67,0.0,2.9,55,0.00,,,0.00,WUHU21623XXSP,2013-05-06 14:36:00,
2013-05-06 10:41:00,63.5,46.5,29.86,NE,39,1.2,2.2,54,0.00,,,0.00,WUHU21623XXSP,2013-05-06 14:41:00,
2013-05-06 10:46:00,64.2,46.6,29.87,East,90,0.0,1.3,53,0.00,,,0.00,WUHU21623XXSP,2013-05-06 14:46:00,
2013-05-06 10:51:00,64.8,47.1,29.87,NE,45,0.0,1.1,53,0.00,,,0.00,WUHU21623XXSP,2013-05-06 14:51:00,
2013-05-06 10:56:00,65.1,47.0,29.87,NNE,22,1.9,2.0,52,0.00,,,0.00,WUHU21623XXSP,2013-05-06 14:56:00,
2013-05-06 11:01:00,65.5,46.9,29.87,NNE,22,0.9,2.5,51,0.00,,,0.00,WUHU21623XXSP,2013-05-06 15:01:00,
2013-05-06 11:06:00,66.0,47.4,29.87,NE,45,0.0,2.5,51,0.00,,,0.00,WUHU21623XXSP,2013-05-06 15:06:00,
2013-05-06 11:11:00,66.4,47.3,29.87,NE,45,1.0,1.8,50,0.00,,,0.00,WUHU21623XXSP,2013-05-06 15:11:00,
2013-05-06 11:16:00,66.7,48.1,29.87,NE,45,0.0,1.8,51,0.00,,,0.00,WUHU21623XXSP,2013-05-06 15:16:00,
2013-05-06 11:21:00,67.1,47.9,29.87,NE,45,0.0,1.3,50,0.00,,,0.00,WUHU21623XXSP,2013-05-06 15:21:00,
2013-05-06 11:26:00,67.6,47.8,29.87,NNE,22,0.9,1.8,49,0.00,,,0.00,WUHU21623XXSP,2013-05-06 15:26:00,
2013-05-06 11:31:00,67.8,48.0,29.87,NE,45,1.6,2.9,49,0.00,,,0.00,WUHU21623XXSP,2013-05-06 15:31:00,
2013-05-06 11:36:00,68.0,47.6,29.86,NE,37,0.8,2.9,48,0.00,,,0.00,WUHU21623XXSP,2013-05-06 15:36:00,
2013-05-06 11:41:00,68.4,48.5,29.87,NNE,22,0.0,2.5,49,0.00,,,0.00,WUHU21623XXSP,2013-05-06 15:41:00,
2013-05-06 11:46:00,68.7,47.6,29.86,NNE,22,1.5,2.0,47,0.00,,,0.00,WUHU21623XXSP,2013-05-06 15:46:00,
2013-05-06 11:51:00,68.9,46.6,29.87,ENE,57,1.2,2.0,45,0.00,,,0.00,WUHU21623XXSP,2013-05-06 15:51:00,
2013-05-06 11:56:00,69.1,47.3,29.87,NE,45,0.0,1.6,46,0.00,,,0.00,WUHU21623XXSP,2013-05-06 15:56:00,
2013-05-06 12:01:00,69.4,47.7,29.87,ENE,67,1.1,1.3,46,0.00,,,0.00,WUHU21623XXSP,2013-05-06 16:01:00,
2013-05-06 12:06:00,69.6,47.2,29.86,NE,45,0.0,1.3,45,0.00,,,0.00,WUHU21623XXSP,2013-05-06 16:06:00,
2013-05-06 12:11:00,70.0,47.6,29.86,NNE,32,1.0,2.5,45,0.00,,,0.00,WUHU21623XXSP,2013-05-06 16:11:00,
2013-05-06 12:16:00,70.0,45.8,29.86,NNE,24,2.4,5.6,42,0.00,,,0.00,WUHU21623XXSP,2013-05-06 16:16:00,
2013-05-06 12:21:00,70.2,46.5,29.86,NNE,22,1.8,5.6,43,0.00,,,0.00,WUHU21623XXSP,2013-05-06 16:21:00,
2013-05-06 12:26:00,70.2,45.9,29.86,NNE,22,4.5,4.5,42,0.00,,,0.00,WUHU21623XXSP,2013-05-06 16:26:00,
2013-05-06 12:31:00,70.3,45.5,29.86,NNE,31,2.2,4.9,41,0.00,,,0.00,WUHU21623XXSP,2013-05-06 16:31:00,
2013-05-06 12:36:00,70.3,46.1,29.86,NNE,27,2.5,4.9,42,0.00,,,0.00,WUHU21623XXSP,2013-05-06 16:36:00,
2013-05-06 12:41:00,70.5,45.7,29.86,NE,50,2.0,4.9,41,0.00,,,0.00,WUHU21623XXSP,2013-05-06 16:41:00,
2013-05-06 12:46:00,70.7,46.4,29.86,NE,45,2.9,3.6,42,0.00,,,0.00,WUHU21623XXSP,2013-05-06 16:46:00,
2013-05-06 12:51:00,71.2,45.7,29.86,NNE,22,1.1,3.6,40,0.00,,,0.00,WUHU21623XXSP,2013-05-06 16:51:00,
2013-05-06 12:56:00,71.6,45.3,29.85,NNE,30,1.9,3.6,39,0.00,,,0.00,WUHU21623XXSP,2013-05-06 16:56:00,
2013-05-06 13:01:00,72.1,44.3,29.85,NE,45,4.9,6.3,37,0.00,,,0.00,WUHU21623XXSP,2013-05-06 17:01:00,
2013-05-06 13:06:00,72.1,43.5,29.85,ENE,67,3.6,6.3,36,0.00,,,0.00,WUHU21623XXSP,2013-05-06 17:06:00,
2013-05-06 13:11:00,72.5,43.9,29.84,ENE,77,1.0,5.1,36,0.00,,,0.00,WUHU21623XXSP,2013-05-06 17:11:00,
2013-05-06 13:16:00,73.0,43.6,29.84,NE,45,1.6,4.9,35,0.00,,,0.00,WUHU21623XXSP,2013-05-06 17:16:00,
2013-05-06 13:21:00,73.6,44.0,29.84,NNE,27,1.6,4.9,35,0.00,,,0.00,WUHU21623XXSP,2013-05-06 17:21:00,
2013-05-06 13:26:00,73.9,42.9,29.84,East,79,1.8,3.1,33,0.00,,,0.00,WUHU21623XXSP,2013-05-06 17:26:00,
2013-05-06 13:31:00,74.3,43.9,29.84,SE,135,1.8,3.1,34,0.00,,,0.00,WUHU21623XXSP,2013-05-06 17:31:00,
2013-05-06 13:36:00,74.8,42.9,29.84,NNE,27,4.1,6.3,32,0.00,,,0.00,WUHU21623XXSP,2013-05-06 17:36:00,
2013-05-06 13:41:00,74.8,42.9,29.84,NNE,22,3.4,6.3,32,0.00,,,0.00,WUHU21623XXSP,2013-05-06 17:41:00,
2013-05-06 13:46:00,74.8,41.4,29.84,NE,40,3.2,5.6,30,0.00,,,0.00,WUHU21623XXSP,2013-05-06 17:46:00,
2013-05-06 13:51:00,74.8,41.4,29.83,NE,46,1.8,5.4,31,0.00,,,0.00,WUHU21623XXSP,2013-05-06 17:51:00,
2013-05-06 13:56:00,74.8,40.4,29.83,NE,45,2.6,5.6,29,0.00,,,0.00,WUHU21623XXSP,2013-05-06 17:56:00,
2013-05-06 14:01:00,74.8,41.4,29.83,NNE,18,1.4,5.6,30,0.00,,,0.00,WUHU21623XXSP,2013-05-06 18:01:00,
2013-05-06 14:06:00,74.8,41.4,29.83,NNE,26,2.7,6.0,30,0.00,,,0.00,WUHU21623XXSP,2013-05-06 18:06:00,
2013-05-06 14:11:00,75.0,42.3,29.83,NNE,22,9.2,9.2,31,0.00,,,0.00,WUHU21623XXSP,2013-05-06 18:11:00,
2013-05-06 14:16:00,75.0,42.3,29.83,ENE,65,2.4,9.2,31,0.00,,,0.00,WUHU21623XXSP,2013-05-06 18:16:00,
2013-05-06 14:21:00,75.0,42.3,29.83,NE,45,2.4,8.7,31,0.00,,,0.00,WUHU21623XXSP,2013-05-06 18:21:00,
2013-05-06 14:26:00,75.4,42.6,29.83,NE,40,1.8,5.1,31,0.00,,,0.00,WUHU21623XXSP,2013-05-06 18:26:00,
2013-05-06 14:31:00,75.7,43.0,29.83,NNE,22,2.5,7.4,31,0.00,,,0.00,WUHU21623XXSP,2013-05-06 18:31:00,
2013-05-06 14:36:00,75.9,42.4,29.83,NNE,27,2.7,7.4,30,0.00,,,0.00,WUHU21623XXSP,2013-05-06 18:36:00,
2013-05-06 14:41:00,75.9,42.4,29.83,NNE,32,1.0,6.7,30,0.00,,,0.00,WUHU21623XXSP,2013-05-06 18:41:00,
2013-05-06 14:46:00,76.1,42.5,29.83,NNE,22,1.9,6.7,30,0.00,,,0.00,WUHU21623XXSP,2013-05-06 18:46:00,
2013-05-06 14:51:00,76.6,43.0,29.83,NNE,27,3.3,6.7,30,0.00,,,0.00,WUHU21623XXSP,2013-05-06 18:51:00,
2013-05-06 14:56:00,76.8,42.1,29.82,NNE,22,3.6,6.7,29,0.00,,,0.00,WUHU21623XXSP,2013-05-06 18:56:00,
2013-05-06 15:01:00,77.2,42.4,29.82,ENE,62,1.5,5.1,29,0.00,,,0.00,WUHU21623XXSP,2013-05-06 19:01:00,
2013-05-06 15:06:00,77.5,42.7,29.82,ENE,67,0.9,4.3,29,0.00,,,0.00,WUHU21623XXSP,2013-05-06 19:06:00,
2013-05-06 15:11:00,77.9,42.0,29.82,NE,45,2.2,5.1,28,0.00,,,0.00,WUHU21623XXSP,2013-05-06 19:11:00,
2013-05-06 15:16:00,78.4,44.5,29.82,NNE,28,2.2,5.1,30,0.00,,,0.00,WUHU21623XXSP,2013-05-06 19:16:00,
2013-05-06 15:21:00,78.4,45.2,29.82,NNW,348,1.1,4.9,31,0.00,,,0.00,WUHU21623XXSP,2013-05-06 19:21:00,
2013-05-06 15:26:00,78.3,46.7,29.82,NE,45,2.0,3.6,33,0.00,,,0.00,WUHU21623XXSP,2013-05-06 19:26:00,
2013-05-06 15:31:00,78.1,46.5,29.81,NNE,29,1.8,4.3,33,0.00,,,0.00,WUHU21623XXSP,2013-05-06 19:31:00,
2013-05-06 15:36:00,77.9,46.3,29.81,WNW,292,0.0,4.3,33,0.00,,,0.00,WUHU21623XXSP,2013-05-06 19:36:00,
2013-05-06 15:41:00,77.5,46.0,29.81,North,356,1.6,3.6,33,0.00,,,0.00,WUHU21623XXSP,2013-05-06 19:41:00,
2013-05-06 15:46:00,77.2,45.8,29.81,NNW,332,1.5,4.0,33,0.00,,,0.00,WUHU21623XXSP,2013-05-06 19:46:00,
2013-05-06 15:51:00,76.8,45.4,29.81,NW,315,2.7,5.1,33,0.00,,,0.00,WUHU21623XXSP,2013-05-06 19:51:00,
2013-05-06 15:56:00,76.3,45.0,29.81,NNW,339,2.2,5.1,33,0.00,,,0.00,WUHU21623XXSP,2013-05-06 19:56:00,
2013-05-06 16:01:00,75.7,44.5,29.81,NNE,22,2.7,4.3,33,0.00,,,0.00,WUHU21623XXSP,2013-05-06 20:01:00,
2013-05-06 16:06:00,75.6,44.3,29.81,NNW,343,2.3,4.3,33,0.00,,,0.00,WUHU21623XXSP,2013-05-06 20:06:00,
2013-05-06 16:11:00,75.4,44.9,29.81,North,0,2.7,4.0,34,0.00,,,0.00,WUHU21623XXSP,2013-05-06 20:11:00,
2013-05-06 16:16:00,75.4,44.9,29.81,NNE,22,2.9,3.8,34,0.00,,,0.00,WUHU21623XXSP,2013-05-06 20:16:00,
2013-05-06 16:21:00,75.0,44.6,29.80,NW,317,1.7,6.0,34,0.00,,,0.00,WUHU21623XXSP,2013-05-06 20:21:00,
2013-05-06 16:26:00,74.8,44.4,29.80,NNW,338,1.4,6.0,34,0.00,,,0.00,WUHU21623XXSP,2013-05-06 20:26:00,
2013-05-06 16:31:00,74.8,45.9,29.80,NNW,337,2.5,4.9,36,0.00,,,0.00,WUHU21623XXSP,2013-05-06 20:31:00,
2013-05-06 16:36:00,74.5,45.6,29.80,North,0,2.5,4.3,36,0.00,,,0.00,WUHU21623XXSP,2013-05-06 20:36:00,
2013-05-06 16:41:00,74.1,44.5,29.80,NNW,334,1.6,5.4,35,0.00,,,0.00,WUHU21623XXSP,2013-05-06 20:41:00,
2013-05-06 16:46:00,73.8,45.7,29.80,NNE,22,3.4,5.4,37,0.00,,,0.00,WUHU21623XXSP,2013-05-06 20:46:00,
2013-05-06 16:51:00,73.2,43.7,29.80,NNW,346,2.4,5.4,35,0.00,,,0.00,WUHU21623XXSP,2013-05-06 20:51:00,
2013-05-06 16:56:00,72.7,44.0,29.80,North,359,2.6,5.8,36,0.00,,,0.00,WUHU21623XXSP,2013-05-06 20:56:00,
2013-05-06 17:01:00,72.1,43.5,29.80,NNW,337,3.3,5.8,36,0.00,,,0.00,WUHU21623XXSP,2013-05-06 21:01:00,
2013-05-06 17:06:00,71.4,44.4,29.79,NNW,343,1.8,5.6,38,0.00,,,0.00,WUHU21623XXSP,2013-05-06 21:06:00,
2013-05-06 17:11:00,71.2,45.0,29.80,NNE,19,3.2,4.9,39,0.00,,,0.00,WUHU21623XXSP,2013-05-06 21:11:00,
2013-05-06 17:16:00,70.9,45.4,29.80,North,0,1.1,4.9,40,0.00,,,0.00,WUHU21623XXSP,2013-05-06 21:16:00,
2013-05-06 17:21:00,70.9,45.4,29.80,North,0,3.4,4.7,40,0.00,,,0.00,WUHU21623XXSP,2013-05-06 21:21:00,
2013-05-06 17:26:00,70.5,45.7,29.80,NW,315,2.7,4.7,41,0.00,,,0.00,WUHU21623XXSP,2013-05-06 21:26:00,
2013-05-06 17:31:00,70.3,45.5,29.80,NNE,13,2.4,6.3,41,0.00,,,0.00,WUHU21623XXSP,2013-05-06 21:31:00,
2013-05-06 17:36:00,70.0,45.2,29.80,NW,315,3.1,6.3,41,0.00,,,0.00,WUHU21623XXSP,2013-05-06 21:36:00,
2013-05-06 17:41:00,69.6,44.9,29.80,NNE,22,3.1,5.4,41,0.00,,,0.00,WUHU21623XXSP,2013-05-06 21:41:00,
2013-05-06 17:46:00,69.1,44.4,29.80,NW,315,3.8,5.4,41,0.00,,,0.00,WUHU21623XXSP,2013-05-06 21:46:00,
2013-05-06 17:51:00,69.1,44.2,29.80,North,2,2.7,4.3,41,0.00,,,0.00,WUHU21623XXSP,2013-05-06 21:51:00,
2013-05-06 17:56:00,68.7,44.0,29.80,NNE,22,1.6,8.5,41,0.00,,,0.00,WUHU21623XXSP,2013-05-06 21:56:00,
2013-05-06 18:01:00,68.5,43.9,29.80,North,3,2.8,8.5,41,0.00,,,0.00,WUHU21623XXSP,2013-05-06 22:01:00,
2013-05-06 18:06:00,68.4,43.7,29.80,NW,315,3.6,4.7,41,0.00,,,0.00,WUHU21623XXSP,2013-05-06 22:06:00,
2013-05-06 18:11:00,68.5,43.9,29.80,NNW,333,2.2,3.6,41,0.00,,,0.00,WUHU21623XXSP,2013-05-06 22:11:00,
2013-05-06 18:16:00,68.5,43.3,29.80,NW,315,1.6,4.5,40,0.00,,,0.00,WUHU21623XXSP,2013-05-06 22:16:00,
2013-05-06 18:21:00,68.7,43.4,29.80,NE,45,2.5,4.5,40,0.00,,,0.00,WUHU21623XXSP,2013-05-06 22:21:00,
2013-05-06 18:26:00,68.7,43.4,29.80,North,0,2.7,4.5,40,0.00,,,0.00,WUHU21623XXSP,2013-05-06 22:26:00,
2013-05-06 18:31:00,68.5,42.5,29.80,North,6,1.4,6.5,39,0.00,,,0.00,WUHU21623XXSP,2013-05-06 22:31:00,
2013-05-06 18:36:00,68.5,43.3,29.80,North,0,5.1,6.5,40,0.00,,,0.00,WUHU21623XXSP,2013-05-06 22:36:00,
2013-05-06 18:41:00,68.5,43.3,29.80,North,0,1.8,6.9,40,0.00,,,0.00,WUHU21623XXSP,2013-05-06 22:41:00,
2013-05-06 18:46:00,68.2,43.0,29.80,North,10,2.4,6.9,40,0.00,,,0.00,WUHU21623XXSP,2013-05-06 22:46:00,
2013-05-06 18:51:00,68.2,43.0,29.80,NNE,22,2.2,4.0,40,0.00,,,0.00,WUHU21623XXSP,2013-05-06 22:51:00,
2013-05-06 18:56:00,68.5,43.9,29.80,North,0,2.0,4.9,41,0.00,,,0.00,WUHU21623XXSP,2013-05-06 22:56:00,
2013-05-06 19:01:00,69.6,44.3,29.80,NW,315,3.4,4.9,40,0.00,,,0.00,WUHU21623XXSP,2013-05-06 23:01:00,
2013-05-06 19:06:00,70.5,44.3,29.80,North,355,1.3,4.5,39,0.00,,,0.00,WUHU21623XXSP,2013-05-06 23:06:00,
2013-05-06 19:11:00,71.4,45.1,29.80,North,359,1.5,4.5,39,0.00,,,0.00,WUHU21623XXSP,2013-05-06 23:11:00,
2013-05-06 19:16:00,73.0,45.8,29.80,North,0,0.9,4.0,38,0.00,,,0.00,WUHU21623XXSP,2013-05-06 23:16:00,
2013-05-06 19:21:00,73.2,45.2,29.80,NNW,342,1.1,4.0,37,0.00,,,0.00,WUHU21623XXSP,2013-05-06 23:21:00,
2013-05-06 19:26:00,72.5,43.9,29.80,North,351,2.0,5.1,36,0.00,,,0.00,WUHU21623XXSP,2013-05-06 23:26:00,
2013-05-06 19:31:00,72.1,43.5,29.80,NNE,13,1.7,5.1,36,0.00,,,0.00,WUHU21623XXSP,2013-05-06 23:31:00,
2013-05-06 19:36:00,72.0,44.1,29.80,North,6,2.4,3.8,37,0.00,,,0.00,WUHU21623XXSP,2013-05-06 23:36:00,
2013-05-06 19:41:00,72.1,43.5,29.80,NNW,341,1.6,3.8,36,0.00,,,0.00,WUHU21623XXSP,2013-05-06 23:41:00,
2013-05-06 19:46:00,72.5,43.9,29.80,NNE,22,2.5,2.5,36,0.00,,,0.00,WUHU21623XXSP,2013-05-06 23:46:00,
2013-05-06 19:51:00,72.3,43.7,29.81,North,2,1.6,4.0,36,0.00,,,0.00,WUHU21623XXSP,2013-05-06 23:51:00,
2013-05-06 19:56:00,71.2,42.8,29.81,NNE,22,3.1,4.0,36,0.00,,,0.00,WUHU21623XXSP,2013-05-06 23:56:00,
2013-05-06 20:01:00,69.6,42.0,29.81,NNE,22,3.6,5.4,37,0.00,,,0.00,WUHU21623XXSP,2013-05-07 00:01:00,
2013-05-06 20:06:00,68.4,41.6,29.81,North,350,1.4,5.4,38,0.00,,,0.00,WUHU21623XXSP,2013-05-07 00:06:00,
2013-05-06 20:11:00,67.3,42.2,29.81,NNE,22,0.9,2.0,40,0.00,,,0.00,WUHU21623XXSP,2013-05-07 00:11:00,
2013-05-06 20:16:00,66.4,41.3,29.81,North,10,1.7,3.1,40,0.00,,,0.00,WUHU21623XXSP,2013-05-07 00:16:00,
2013-05-06 20:21:00,65.5,41.1,29.81,North,0,1.6,3.1,41,0.00,,,0.00,WUHU21623XXSP,2013-05-07 00:21:00,
2013-05-06 20:26:00,64.8,40.5,29.81,NNE,18,1.3,2.7,41,0.00,,,0.00,WUHU21623XXSP,2013-05-07 00:26:00,
2013-05-06 20:31:00,64.2,40.5,29.81,NNW,347,1.2,2.0,42,0.00,,,0.00,WUHU21623XXSP,2013-05-07 00:31:00,
2013-05-06 20:36:00,63.7,40.6,29.81,North,7,1.2,2.0,43,0.00,,,0.00,WUHU21623XXSP,2013-05-07 00:36:00,
2013-05-06 20:41:00,63.1,40.7,29.81,North,0,1.3,2.0,44,0.00,,,0.00,WUHU21623XXSP,2013-05-07 00:41:00,
2013-05-06 20:46:00,62.6,40.2,29.81,North,0,1.3,2.2,44,0.00,,,0.00,WUHU21623XXSP,2013-05-07 00:46:00,
2013-05-06 20:51:00,62.2,40.5,29.81,NNE,22,1.3,2.2,45,0.00,,,0.00,WUHU21623XXSP,2013-05-07 00:51:00,
2013-05-06 20:56:00,61.7,40.0,29.81,North,0,0.9,1.3,45,0.00,,,0.00,WUHU21623XXSP,2013-05-07 00:56:00,
2013-05-06 21:01:00,61.3,40.3,29.81,North,0,0.8,0.9,46,0.00,,,0.00,WUHU21623XXSP,2013-05-07 01:01:00,
2013-05-06 21:06:00,61.0,39.9,29.81,NNW,337,0.9,0.9,46,0.00,,,0.00,WUHU21623XXSP,2013-05-07 01:06:00,
2013-05-06 21:11:00,60.6,39.6,29.81,North,10,1.1,1.6,46,0.00,,,0.00,WUHU21623XXSP,2013-05-07 01:11:00,
2013-05-06 21:16:00,60.4,40.6,29.82,SSE,153,1.1,1.6,48,0.00,,,0.00,WUHU21623XXSP,2013-05-07 01:16:00,
2013-05-06 21:21:00,60.1,40.9,29.82,West,270,0.0,1.6,49,0.00,,,0.00,WUHU21623XXSP,2013-05-07 01:21:00,
2013-05-06 21:26:00,59.7,41.1,29.81,North,0,0.0,1.1,50,0.00,,,0.00,WUHU21623XXSP,2013-05-07 01:26:00,
2013-05-06 21:31:00,59.5,41.4,29.82,SSE,157,0.0,0.0,51,0.00,,,0.00,WUHU21623XXSP,2013-05-07 01:31:00,
2013-05-06 21:36:00,59.2,41.6,29.82,SSE,157,0.0,0.0,52,0.00,,,0.00,WUHU21623XXSP,2013-05-07 01:36:00,
2013-05-06 21:41:00,58.8,42.2,29.82,NNW,337,0.0,0.0,54,0.00,,,0.00,WUHU21623XXSP,2013-05-07 01:41:00,
2013-05-06 21:46:00,58.8,42.2,29.83,West,270,0.0,0.0,54,0.00,,,0.00,WUHU21623XXSP,2013-05-07 01:46:00,
2013-05-06 21:51:00,58.6,42.5,29.82,SSW,202,0.0,0.0,55,0.00,,,0.00,WUHU21623XXSP,2013-05-07 01:51:00,
2013-05-06 21:56:00,58.3,42.2,29.83,SSW,202,0.0,0.0,55,0.00,,,0.00,WUHU21623XXSP,2013-05-07 01:56:00,
2013-05-06 22:01:00,57.9,41.8,29.83,SSW,202,0.0,0.0,55,0.00,,,0.00,WUHU21623XXSP,2013-05-07 02:01:00,
2013-05-06 22:06:00,57.6,42.0,29.83,SSW,202,0.0,0.0,56,0.00,,,0.00,WUHU21623XXSP,2013-05-07 02:06:00,
2013-05-06 22:11:00,57.4,42.3,29.83,South,180,0.0,0.0,57,0.00,,,0.00,WUHU21623XXSP,2013-05-07 02:11:00,
2013-05-06 22:16:00,57.0,42.4,29.83,South,180,0.0,0.0,58,0.00,,,0.00,WUHU21623XXSP,2013-05-07 02:16:00,
2013-05-06 22:21:00,56.8,42.7,29.84,South,180,0.0,0.0,59,0.00,,,0.00,WUHU21623XXSP,2013-05-07 02:21:00,
2013-05-06 22:26:00,56.5,42.3,29.84,South,180,0.0,0.0,59,0.00,,,0.00,WUHU21623XXSP,2013-05-07 02:26:00,
2013-05-06 22:31:00,56.3,42.2,29.84,South,180,0.0,0.0,59,0.00,,,0.00,WUHU21623XXSP,2013-05-07 02:31:00,
2013-05-06 22:36:00,56.1,42.0,29.84,South,180,0.0,0.0,59,0.00,,,0.00,WUHU21623XXSP,2013-05-07 02:36:00,
2013-05-06 22:41:00,55.9,41.8,29.84,South,180,0.0,0.0,59,0.00,,,0.00,WUHU21623XXSP,2013-05-07 02:41:00,
2013-05-06 22:46:00,55.6,42.3,29.84,South,180,0.0,0.0,61,0.00,,,0.00,WUHU21623XXSP,2013-05-07 02:46:00,
2013-05-06 22:51:00,55.4,42.5,29.84,South,180,0.0,0.0,62,0.00,,,0.00,WUHU21623XXSP,2013-05-07 02:51:00,
2013-05-06 22:56:00,55.0,42.6,29.84,South,180,0.0,0.0,63,0.00,,,0.00,WUHU21623XXSP,2013-05-07 02:56:00,
2013-05-06 23:01:00,54.5,42.5,29.84,South,180,0.0,0.0,64,0.00,,,0.00,WUHU21623XXSP,2013-05-07 03:01:00,
2013-05-06 23:06:00,54.3,42.0,29.84,South,180,0.0,0.0,63,0.00,,,0.00,WUHU21623XXSP,2013-05-07 03:06:00,
2013-05-06 23:11:00,54.0,42.4,29.83,NW,315,0.0,0.0,65,0.00,,,0.00,WUHU21623XXSP,2013-05-07 03:11:00,
2013-05-06 23:16:00,53.8,42.2,29.84,SE,135,0.0,0.0,65,0.00,,,0.00,WUHU21623XXSP,2013-05-07 03:16:00,
2013-05-06 23:21:00,53.4,42.3,29.84,SE,135,0.0,0.0,66,0.00,,,0.00,WUHU21623XXSP,2013-05-07 03:21:00,
2013-05-06 23:26:00,53.4,42.3,29.84,SE,135,0.0,0.0,66,0.00,,,0.00,WUHU21623XXSP,2013-05-07 03:26:00,
2013-05-06 23:31:00,53.2,42.1,29.84,SE,135,0.0,0.0,66,0.00,,,0.00,WUHU21623XXSP,2013-05-07 03:31:00,
2013-05-06 23:36:00,53.1,42.0,29.84,SE,135,0.0,0.0,66,0.00,,,0.00,WUHU21623XXSP,2013-05-07 03:36:00,
2013-05-06 23:41:00,52.9,42.2,29.83,SE,135,0.0,0.0,67,0.00,,,0.00,WUHU21623XXSP,2013-05-07 03:41:00,
2013-05-06 23:46:00,52.5,41.9,29.83,SE,135,0.0,0.0,67,0.00,,,0.00,WUHU21623XXSP,2013-05-07 03:46:00,
2013-05-06 23:51:00,52.3,42.1,29.83,SE,135,0.0,0.0,68,0.00,,,0.00,WUHU21623XXSP,2013-05-07 03:51:00,
2013-05-06 23:56:00,52.2,42.4,29.83,ESE,112,0.0,0.0,69,0.00,,,0.00,WUHU21623XXSP,2013-05-07 03:56:00,